createdAt,value
2017-11-10T00:00:39.755Z,17.03
2017-11-10T00:03:08.057Z,18.23
2017-11-10T00:05:36.350Z,15.80
2017-11-10T00:08:04.980Z,16.03
2017-11-10T00:10:34.028Z,16.70
2017-11-10T00:13:05.181Z,15.90
2017-11-10T00:15:33.474Z,17.47
2017-11-10T00:18:02.568Z,17.60
2017-11-10T00:20:30.816Z,15.20
2017-11-10T00:22:59.044Z,12.90
2017-11-10T00:25:27.341Z,14.40
2017-11-10T00:27:56.391Z,13.00
2017-11-10T00:30:24.698Z,13.57
2017-11-10T00:32:53.980Z,12.60
2017-11-10T00:35:22.212Z,13.20
2017-11-10T00:37:50.455Z,15.57
2017-11-10T00:40:18.743Z,12.33
2017-11-10T00:42:47.006Z,11.50
2017-11-10T00:45:15.243Z,11.53
2017-11-10T00:47:43.475Z,14.50
2017-11-10T00:50:12.522Z,14.20
2017-11-10T00:52:40.765Z,12.13
2017-11-10T00:55:09.101Z,12.70
2017-11-10T00:57:37.344Z,12.00
2017-11-10T01:00:05.644Z,13.60
2017-11-10T01:02:33.924Z,11.30
2017-11-10T01:05:02.185Z,11.10
2017-11-10T01:07:30.466Z,12.47
2017-11-10T01:09:58.764Z,11.97
2017-11-10T01:12:27.124Z,11.30
2017-11-10T01:14:55.381Z,13.17
2017-11-10T01:17:23.636Z,10.87
2017-11-10T01:19:51.916Z,10.60
2017-11-10T01:22:20.203Z,10.97
2017-11-10T01:24:48.498Z,12.60
2017-11-10T01:27:16.735Z,12.10
2017-11-10T01:29:45.751Z,12.77
2017-11-10T01:32:14.026Z,9.53
2017-11-10T01:34:42.304Z,14.23
2017-11-10T01:37:10.607Z,11.40
2017-11-10T01:39:38.911Z,11.57
2017-11-10T01:42:07.191Z,10.00
2017-11-10T01:44:35.456Z,11.80
2017-11-10T01:47:03.727Z,10.67
2017-11-10T01:49:32.003Z,9.33
2017-11-10T01:52:00.242Z,10.57
2017-11-10T01:54:28.552Z,9.37
2017-11-10T01:56:56.844Z,10.17
2017-11-10T01:59:26.084Z,9.03
2017-11-10T02:01:55.134Z,9.30
2017-11-10T02:04:23.448Z,8.57
2017-11-10T02:06:51.713Z,8.90
2017-11-10T02:09:19.981Z,8.87
2017-11-10T02:11:48.251Z,8.40
2017-11-10T02:14:16.551Z,8.67
2017-11-10T02:16:44.939Z,8.87
2017-11-10T02:19:13.247Z,9.20
2017-11-10T02:21:44.459Z,7.60
2017-11-10T02:24:12.798Z,7.87
2017-11-10T02:26:41.098Z,6.60
2017-11-10T02:29:09.402Z,7.40
2017-11-10T02:31:38.572Z,10.07
2017-11-10T02:34:06.852Z,5.93
2017-11-10T02:36:35.174Z,6.60
2017-11-10T02:39:03.481Z,8.33
2017-11-10T02:41:31.749Z,7.20
2017-11-10T02:44:00.005Z,6.70
2017-11-10T02:46:29.056Z,7.60
2017-11-10T02:48:57.330Z,7.03
2017-11-10T02:51:25.602Z,7.30
2017-11-10T02:53:53.879Z,6.93
2017-11-10T02:56:22.170Z,6.30
2017-11-10T02:58:50.422Z,5.47
2017-11-10T03:01:18.689Z,5.40
2017-11-10T03:03:47.027Z,6.30
2017-11-10T03:06:15.276Z,5.00
2017-11-10T03:08:43.528Z,5.60
2017-11-10T03:11:11.832Z,4.67
2017-11-10T03:13:40.112Z,5.30
2017-11-10T03:16:08.403Z,5.53
2017-11-10T03:18:36.645Z,4.60
2017-11-10T03:21:04.914Z,5.33
2017-11-10T03:23:33.225Z,4.30
2017-11-10T03:26:01.474Z,5.20
2017-11-10T03:28:29.739Z,5.60
2017-11-10T03:30:58.000Z,5.80
2017-11-10T03:33:26.993Z,6.10
2017-11-10T03:35:55.271Z,6.43
2017-11-10T03:38:23.548Z,6.63
2017-11-10T03:40:51.901Z,6.73
2017-11-10T03:43:20.121Z,7.40
2017-11-10T03:45:48.408Z,7.27
2017-11-10T03:48:16.677Z,7.17
2017-11-10T03:50:44.927Z,7.07
2017-11-10T03:53:13.199Z,7.47
2017-11-10T03:55:42.264Z,6.60
2017-11-10T03:58:10.601Z,6.17
2017-11-10T04:00:38.842Z,6.60
2017-11-10T04:03:07.098Z,6.27
2017-11-10T04:05:35.345Z,5.47
2017-11-10T04:08:03.609Z,7.17
2017-11-10T04:10:31.840Z,6.90
2017-11-10T04:13:00.881Z,7.13
2017-11-10T04:15:29.184Z,6.77
2017-11-10T04:17:57.441Z,6.70
2017-11-10T04:20:25.709Z,5.37
2017-11-10T04:22:53.972Z,6.60
2017-11-10T04:25:22.993Z,6.20
2017-11-10T04:27:51.240Z,6.00
2017-11-10T04:30:20.245Z,4.80
2017-11-10T04:32:48.492Z,5.17
2017-11-10T04:35:16.731Z,6.33
2017-11-10T04:37:45.048Z,6.03
2017-11-10T04:40:14.279Z,7.17
2017-11-10T04:42:42.561Z,7.70
2017-11-10T04:45:10.800Z,6.07
2017-11-10T04:47:39.065Z,7.13
2017-11-10T04:50:07.323Z,7.50
2017-11-10T04:52:35.555Z,7.97
2017-11-10T04:55:03.825Z,8.77
2017-11-10T04:57:32.099Z,8.20
2017-11-10T05:00:01.152Z,8.83
2017-11-10T05:02:29.411Z,9.77
2017-11-10T05:04:57.663Z,10.40
2017-11-10T05:07:25.920Z,12.47
2017-11-10T05:09:54.974Z,9.97
2017-11-10T05:12:33.154Z,10.53
2017-11-10T05:15:01.431Z,9.80
2017-11-10T05:17:29.720Z,11.40
2017-11-10T05:19:57.986Z,11.47
2017-11-10T05:22:26.254Z,11.40
2017-11-10T05:24:55.310Z,10.70
2017-11-10T05:27:23.600Z,11.50
2017-11-10T05:29:51.822Z,12.97
2017-11-10T05:32:20.167Z,8.73
2017-11-10T05:34:48.509Z,10.40
2017-11-10T05:37:17.630Z,10.30
2017-11-10T05:39:46.698Z,11.17
2017-11-10T05:42:15.059Z,11.50
2017-11-10T05:44:43.321Z,10.40
2017-11-10T05:47:11.588Z,11.30
2017-11-10T05:49:40.608Z,11.83
2017-11-10T05:52:08.944Z,12.67
2017-11-10T05:54:37.200Z,11.40
2017-11-10T05:57:05.488Z,13.23
2017-11-10T05:59:34.084Z,14.80
2017-11-10T06:02:03.289Z,13.47
2017-11-10T06:04:31.651Z,13.67
2017-11-10T06:07:00.716Z,13.83
2017-11-10T06:09:29.005Z,15.40
2017-11-10T06:11:57.514Z,14.43
2017-11-10T06:14:25.843Z,14.67
2017-11-10T06:16:54.103Z,13.27
2017-11-10T06:19:22.377Z,14.87
2017-11-10T06:21:50.658Z,15.17
2017-11-10T06:24:19.405Z,16.40
2017-11-10T06:26:47.974Z,14.27
2017-11-10T06:29:17.020Z,17.43
2017-11-10T06:31:46.037Z,19.17
2017-11-10T06:34:14.374Z,18.20
2017-11-10T06:36:43.470Z,15.00
2017-11-10T06:39:11.742Z,16.93
2017-11-10T06:41:40.783Z,16.67
2017-11-10T06:44:09.057Z,19.53
2017-11-10T06:46:37.335Z,18.80
2017-11-10T06:49:05.582Z,16.10
2017-11-10T06:51:34.607Z,17.63
2017-11-10T06:54:02.907Z,17.30
2017-11-10T06:56:31.220Z,19.30
2017-11-10T06:59:00.239Z,18.47
2017-11-10T07:01:29.251Z,17.03
2017-11-10T07:03:57.521Z,18.47
2017-11-10T07:06:25.896Z,15.80
2017-11-10T07:08:54.178Z,19.20
2017-11-10T07:11:22.442Z,17.33
2017-11-10T07:13:51.481Z,18.73
2017-11-10T07:16:19.714Z,18.60
2017-11-10T07:18:48.820Z,18.50
2017-11-10T07:21:17.881Z,16.70
2017-11-10T07:23:46.248Z,18.60
2017-11-10T07:26:14.584Z,17.07
2017-11-10T07:28:42.835Z,17.07
2017-11-10T07:31:11.864Z,15.60
2017-11-10T07:33:40.099Z,16.10
2017-11-10T07:36:09.118Z,16.03
2017-11-10T07:38:37.408Z,16.80
2017-11-10T07:41:05.641Z,17.00
2017-11-10T07:43:33.901Z,15.27
2017-11-10T07:46:02.164Z,15.37
2017-11-10T07:48:30.435Z,14.73
2017-11-10T07:50:58.681Z,16.00
2017-11-10T07:53:26.959Z,17.90
2017-11-10T07:55:55.240Z,15.00
2017-11-10T07:58:24.228Z,15.83
2017-11-10T08:00:53.461Z,16.80
2017-11-10T08:03:21.732Z,16.40
2017-11-10T08:05:49.976Z,17.10
2017-11-10T08:08:19.019Z,16.93
2017-11-10T08:10:47.243Z,17.03
2017-11-10T08:13:16.279Z,16.07
2017-11-10T08:15:44.573Z,15.37
2017-11-10T08:18:12.818Z,14.07
2017-11-10T08:20:41.100Z,17.57
2017-11-10T08:23:09.352Z,13.50
2017-11-10T08:25:38.397Z,12.97
2017-11-10T08:28:07.139Z,13.53
2017-11-10T08:30:35.610Z,14.93
2017-11-10T08:33:04.659Z,12.57
2017-11-10T08:35:32.924Z,13.33
2017-11-10T08:38:01.178Z,13.47
2017-11-10T08:40:29.472Z,12.13
2017-11-10T08:42:58.801Z,13.57
2017-11-10T08:45:27.093Z,12.57
2017-11-10T08:47:55.347Z,10.20
2017-11-10T08:50:23.619Z,11.10
2017-11-10T08:52:52.698Z,11.57
2017-11-10T08:55:21.233Z,10.43
2017-11-10T08:57:49.512Z,11.60
2017-11-10T09:00:18.703Z,10.23
2017-11-10T09:02:47.775Z,9.43
2017-11-10T09:05:16.013Z,10.83
2017-11-10T09:07:44.384Z,9.80
2017-11-10T09:10:12.660Z,8.17
2017-11-10T09:12:40.908Z,6.83
2017-11-10T09:15:10.294Z,9.60
2017-11-10T09:17:39.471Z,8.00
2017-11-10T09:20:07.772Z,8.40
2017-11-10T09:22:36.231Z,7.40
2017-11-10T09:25:05.499Z,6.57
2017-11-10T09:27:34.986Z,6.20
2017-11-10T09:30:10.533Z,5.90
2017-11-10T09:32:46.493Z,7.53
2017-11-10T09:35:16.388Z,6.50
2017-11-10T09:38:01.149Z,5.30
2017-11-10T09:40:44.781Z,5.83
2017-11-10T09:43:27.927Z,5.40
2017-11-10T09:46:10.768Z,4.80
2017-11-10T09:48:45.320Z,6.30
2017-11-10T09:54:25.211Z,5.47
2017-11-10T09:56:53.513Z,4.63
2017-11-10T09:59:35.725Z,4.30
2017-11-10T10:02:14.752Z,4.57
2017-11-10T10:05:01.591Z,3.50
2017-11-10T10:07:48.386Z,4.80
2017-11-10T10:10:33.280Z,3.60
2017-11-10T10:16:20.607Z,3.77
2017-11-10T10:18:49.820Z,3.77
2017-11-10T10:21:36.559Z,3.17
2017-11-10T10:24:05.656Z,3.50
2017-11-10T10:26:34.809Z,5.00
2017-11-10T10:29:04.530Z,3.00
2017-11-10T10:31:34.684Z,3.03
2017-11-10T10:34:02.942Z,4.30
2017-11-10T10:36:31.210Z,4.73
2017-11-10T10:39:01.202Z,5.93
2017-11-10T10:41:30.397Z,5.73
2017-11-10T10:43:58.681Z,6.30
2017-11-10T10:46:27.000Z,6.80
2017-11-10T10:48:55.400Z,8.20
2017-11-10T10:51:25.744Z,7.60
2017-11-10T10:53:54.482Z,9.37
2017-11-10T10:56:23.553Z,8.20
2017-11-10T10:58:52.391Z,10.67
2017-11-10T11:01:21.784Z,13.83
2017-11-10T11:03:50.036Z,11.27
2017-11-10T11:06:19.089Z,11.43
2017-11-10T11:08:48.230Z,12.20
2017-11-10T11:11:16.532Z,13.00
2017-11-10T11:13:45.801Z,14.67
2017-11-10T11:16:14.049Z,15.33
2017-11-10T11:18:43.210Z,13.20
2017-11-10T11:21:11.476Z,12.97
2017-11-10T11:23:40.546Z,15.87
2017-11-10T11:26:09.755Z,12.27
2017-11-10T11:28:38.432Z,13.70
2017-11-10T11:31:06.716Z,12.60
2017-11-10T11:33:36.606Z,11.37
2017-11-10T11:36:05.719Z,11.90
2017-11-10T11:38:34.686Z,13.17
2017-11-10T11:41:02.934Z,13.50
2017-11-10T11:43:32.235Z,13.50
2017-11-10T11:46:01.237Z,12.50
2017-11-10T11:48:29.517Z,11.87
2017-11-10T11:50:57.798Z,13.00
2017-11-10T11:53:26.432Z,12.90
2017-11-10T11:55:56.728Z,12.47
2017-11-10T11:58:25.516Z,13.07
2017-11-10T12:00:56.507Z,12.47
2017-11-10T12:03:25.593Z,12.53
2017-11-10T12:05:53.857Z,11.70
2017-11-10T12:08:22.901Z,12.40
2017-11-10T12:10:52.081Z,10.30
2017-11-10T12:13:20.431Z,12.73
2017-11-10T12:15:48.705Z,11.50
2017-11-10T12:18:17.100Z,11.73
2017-11-10T12:20:45.393Z,12.03
2017-11-10T12:23:15.633Z,15.40
2017-11-10T12:25:43.948Z,13.30
2017-11-10T12:28:12.208Z,12.90
2017-11-10T12:30:53.023Z,13.20
2017-11-10T12:33:24.248Z,15.50
2017-11-10T12:35:52.502Z,13.27
2017-11-10T12:38:21.135Z,14.10
2017-11-10T12:40:50.221Z,11.90
2017-11-10T12:43:18.466Z,13.27
2017-11-10T12:45:46.758Z,12.47
2017-11-10T12:48:15.041Z,10.10
2017-11-10T12:50:44.148Z,9.17
2017-11-10T12:53:13.212Z,9.10
2017-11-10T12:55:41.513Z,7.77
2017-11-10T12:58:09.788Z,7.83
2017-11-10T13:00:38.077Z,9.07
2017-11-10T13:03:07.416Z,7.90
2017-11-10T13:05:35.729Z,9.80
2017-11-10T13:08:04.377Z,7.77
2017-11-10T13:10:32.649Z,8.07
2017-11-10T13:13:01.698Z,9.97
2017-11-10T13:15:30.313Z,7.50
2017-11-10T13:17:59.376Z,9.20
2017-11-10T13:20:29.291Z,7.33
2017-11-10T13:22:57.660Z,9.00
2017-11-10T13:25:25.924Z,7.67
2017-11-10T13:27:54.255Z,8.20
2017-11-10T13:30:22.496Z,7.60
2017-11-10T13:32:50.866Z,8.50
2017-11-10T13:35:19.984Z,6.37
2017-11-10T13:37:48.278Z,6.13
2017-11-10T13:40:18.168Z,5.27
2017-11-10T13:42:47.406Z,5.50
2017-11-10T13:45:16.534Z,6.70
2017-11-10T13:47:45.234Z,5.37
2017-11-10T13:50:13.540Z,5.50
2017-11-10T13:52:41.828Z,5.40
2017-11-10T13:55:10.182Z,7.70
2017-11-10T13:57:38.431Z,7.20
2017-11-10T14:00:07.546Z,6.87
2017-11-10T14:02:36.952Z,6.20
2017-11-10T14:05:05.333Z,6.90
2017-11-10T14:07:33.634Z,6.63
2017-11-10T14:10:02.600Z,6.97
2017-11-10T14:12:30.913Z,8.20
2017-11-10T14:14:59.222Z,7.07
2017-11-10T14:17:28.569Z,7.50
2017-11-10T14:19:58.283Z,7.00
2017-11-10T14:22:26.613Z,7.47
2017-11-10T14:24:55.669Z,7.50
2017-11-10T14:27:23.982Z,6.47
2017-11-10T14:29:52.267Z,10.40
2017-11-10T14:32:22.223Z,7.80
2017-11-10T14:34:50.549Z,7.40
2017-11-10T14:37:19.580Z,7.27
2017-11-10T14:39:49.544Z,7.70
2017-11-10T14:42:17.852Z,8.07
2017-11-10T14:44:47.052Z,7.80
2017-11-10T14:47:16.171Z,7.80
2017-11-10T14:49:45.078Z,8.73
2017-11-10T14:52:13.397Z,8.40
2017-11-10T14:54:41.723Z,8.73
2017-11-10T14:57:11.302Z,8.90
2017-11-10T14:59:40.379Z,7.40
2017-11-10T15:02:08.745Z,5.67
2017-11-10T15:04:37.054Z,4.50
2017-11-10T15:07:06.571Z,4.20
2017-11-10T15:09:34.839Z,4.50
2017-11-10T15:12:03.515Z,4.73
2017-11-10T15:14:33.435Z,4.83
2017-11-10T15:17:02.509Z,4.80
2017-11-10T15:19:31.431Z,5.80
2017-11-10T15:22:01.428Z,6.30
2017-11-10T15:24:29.709Z,6.77
2017-11-10T15:26:58.829Z,4.90
2017-11-10T15:29:27.868Z,5.80
2017-11-10T15:31:56.992Z,5.87
2017-11-10T15:34:26.417Z,5.67
2017-11-10T15:36:57.656Z,5.40
2017-11-10T15:39:26.722Z,5.07
2017-11-10T15:41:55.412Z,9.00
2017-11-10T15:44:26.429Z,4.63
2017-11-10T15:46:57.190Z,5.17
2017-11-10T15:49:26.635Z,3.20
2017-11-10T15:51:55.714Z,2.63
2017-11-10T15:54:24.304Z,3.23
2017-11-10T15:56:53.173Z,3.07
2017-11-10T15:59:22.712Z,3.10
2017-11-10T16:01:50.990Z,2.53
2017-11-10T16:04:19.989Z,3.00
2017-11-10T16:06:51.621Z,3.00
2017-11-10T16:09:20.792Z,3.27
2017-11-10T16:11:49.110Z,5.03
2017-11-10T16:14:18.897Z,3.13
2017-11-10T16:16:47.506Z,3.10
2017-11-10T16:19:15.788Z,3.63
2017-11-10T16:21:50.344Z,4.33
2017-11-10T16:24:19.435Z,3.40
2017-11-10T16:26:48.965Z,3.60
2017-11-10T16:29:19.170Z,3.33
2017-11-10T16:31:47.689Z,4.60
2017-11-10T16:34:16.717Z,3.90
2017-11-10T16:36:45.910Z,4.27
2017-11-10T16:39:14.989Z,4.13
2017-11-10T16:41:44.009Z,4.30
2017-11-10T16:44:12.783Z,4.07
2017-11-10T16:46:43.834Z,4.40
2017-11-10T16:49:12.963Z,3.63
2017-11-10T16:51:45.600Z,5.37
2017-11-10T16:54:15.752Z,4.40
2017-11-10T16:56:44.030Z,3.83
2017-11-10T16:59:16.670Z,4.43
2017-11-10T17:01:46.629Z,4.63
2017-11-10T17:04:15.430Z,4.83
2017-11-10T17:06:44.304Z,3.93
2017-11-10T17:09:13.191Z,3.87
2017-11-10T17:11:41.678Z,4.50
2017-11-10T17:14:11.585Z,4.00
2017-11-10T17:16:40.919Z,4.30
2017-11-10T17:19:09.484Z,6.20
2017-11-10T17:21:40.283Z,4.80
2017-11-10T17:24:09.044Z,5.20
2017-11-10T17:26:37.923Z,4.80
2017-11-10T17:29:09.303Z,3.67
2017-11-10T17:31:39.500Z,4.43
2017-11-10T17:34:08.691Z,3.90
2017-11-10T17:36:39.201Z,4.13
2017-11-10T17:39:08.248Z,3.43
2017-11-10T17:41:37.147Z,3.40
2017-11-10T17:44:08.489Z,4.20
2017-11-10T17:46:40.705Z,4.07
2017-11-10T17:49:08.997Z,3.00
2017-11-10T17:51:37.969Z,4.07
2017-11-10T17:54:06.268Z,3.60
2017-11-10T17:56:35.314Z,3.50
2017-11-10T17:59:06.456Z,4.27
2017-11-10T18:01:34.822Z,4.17
2017-11-10T18:04:03.089Z,4.77
2017-11-10T18:06:33.536Z,4.60
2017-11-10T18:09:06.043Z,4.80
2017-11-10T18:11:35.252Z,3.43
2017-11-10T18:14:03.582Z,4.27
2017-11-10T18:16:31.839Z,5.53
2017-11-10T18:19:00.150Z,4.80
2017-11-10T18:21:28.421Z,4.90
2017-11-10T18:23:57.317Z,4.03
2017-11-10T18:26:25.644Z,4.00
2017-11-10T18:28:55.034Z,4.17
2017-11-10T18:31:23.335Z,4.30
2017-11-10T18:33:52.370Z,4.07
2017-11-10T18:36:22.533Z,5.30
2017-11-10T18:38:50.825Z,4.47
2017-11-10T18:41:19.889Z,5.47
2017-11-10T18:43:49.850Z,6.03
2017-11-10T18:46:20.240Z,5.87
2017-11-10T18:48:54.325Z,4.67
2017-11-10T18:51:23.156Z,4.63
2017-11-10T18:53:52.970Z,6.67
2017-11-10T18:56:24.352Z,7.93
2017-11-10T18:58:52.699Z,5.50
2017-11-10T19:01:21.778Z,5.30
2017-11-10T19:03:51.139Z,5.30
2017-11-10T19:06:19.572Z,5.67
2017-11-10T19:08:49.586Z,7.20
2017-11-10T19:11:17.898Z,6.03
2017-11-10T19:13:47.810Z,5.70
2017-11-10T19:16:17.520Z,4.67
2017-11-10T19:18:47.069Z,3.57
2017-11-10T19:21:15.301Z,5.10
2017-11-10T19:23:45.430Z,4.97
2017-11-10T19:26:15.320Z,4.40
2017-11-10T19:28:44.619Z,4.63
2017-11-10T19:31:13.169Z,6.23
2017-11-10T19:33:41.887Z,5.10
2017-11-10T19:36:11.492Z,3.60
2017-11-10T19:38:39.749Z,5.00
2017-11-10T19:41:09.017Z,3.93
2017-11-10T19:43:37.661Z,5.57
2017-11-10T19:46:06.729Z,4.50
2017-11-10T19:48:35.759Z,4.27
2017-11-10T19:51:04.961Z,3.60
2017-11-10T19:53:34.619Z,4.23
2017-11-10T19:56:03.467Z,4.13
2017-11-10T19:58:34.075Z,5.63
2017-11-10T20:01:03.682Z,4.90
2017-11-10T20:03:31.943Z,4.13
2017-11-10T20:06:01.080Z,5.00
2017-11-10T20:08:29.995Z,4.90
2017-11-10T20:10:59.039Z,4.97
2017-11-10T20:13:27.293Z,4.93
2017-11-10T20:15:56.517Z,4.90
2017-11-10T20:18:27.574Z,4.33
2017-11-10T20:20:57.362Z,3.27
2017-11-10T20:23:25.650Z,4.30
2017-11-10T20:25:54.054Z,4.00
2017-11-10T20:28:22.529Z,4.23
2017-11-10T20:30:52.781Z,4.13
2017-11-10T20:33:21.235Z,4.20
2017-11-10T20:35:50.215Z,4.80
2017-11-10T20:38:21.167Z,4.73
2017-11-10T20:40:51.247Z,5.47
2017-11-10T20:43:20.444Z,5.00
2017-11-10T20:45:50.529Z,3.90
2017-11-10T20:50:54.889Z,5.43
2017-11-10T20:53:24.908Z,5.50
2017-11-10T20:55:56.690Z,5.43
2017-11-10T20:58:25.768Z,5.60
2017-11-10T21:00:54.907Z,4.60
2017-11-10T21:03:24.083Z,6.30
2017-11-10T21:05:52.954Z,5.00
2017-11-10T21:08:21.388Z,7.20
2017-11-10T21:10:49.721Z,4.20
2017-11-10T21:13:19.069Z,9.63
2017-11-10T21:15:48.991Z,5.90
2017-11-10T21:18:17.911Z,5.60
2017-11-10T21:20:46.992Z,5.17
2017-11-10T21:23:16.167Z,4.93
2017-11-10T21:25:46.002Z,5.17
2017-11-10T21:28:16.840Z,4.90
2017-11-10T21:30:45.891Z,4.30
2017-11-10T21:33:14.742Z,3.40
2017-11-10T21:35:43.839Z,6.03
2017-11-10T21:38:12.912Z,3.50
2017-11-10T21:40:42.089Z,4.40
2017-11-10T21:43:10.363Z,4.07
2017-11-10T21:45:40.624Z,5.30
2017-11-10T21:48:10.983Z,4.20
2017-11-10T21:50:41.623Z,4.90
2017-11-10T21:53:10.616Z,3.67
2017-11-10T21:55:40.020Z,4.77
2017-11-10T21:58:09.122Z,4.97
2017-11-10T22:00:38.231Z,4.70
2017-11-10T22:03:06.570Z,4.67
2017-11-10T22:05:35.286Z,4.03
2017-11-10T22:08:03.798Z,5.47
2017-11-10T22:10:32.068Z,4.93
2017-11-10T22:13:00.347Z,3.50
2017-11-10T22:15:28.847Z,5.20
2017-11-10T22:17:57.367Z,4.80
2017-11-10T22:20:26.325Z,5.77
2017-11-10T22:22:54.792Z,4.80
2017-11-10T22:25:23.183Z,5.37
2017-11-10T22:27:52.233Z,4.80
2017-11-10T22:30:21.364Z,4.80
2017-11-10T22:32:50.195Z,5.60
2017-11-10T22:35:19.317Z,5.77
2017-11-10T22:37:48.380Z,4.80
2017-11-10T22:40:17.651Z,4.27
2017-11-10T22:42:45.924Z,4.13
2017-11-10T22:45:14.196Z,3.80
2017-11-10T22:47:42.456Z,4.37
2017-11-10T22:50:10.748Z,4.90
2017-11-10T22:52:39.003Z,5.47
2017-11-10T22:55:07.291Z,6.00
2017-11-10T22:57:35.550Z,4.40
2017-11-10T23:00:03.829Z,5.10
2017-11-10T23:02:32.252Z,4.57
2017-11-10T23:05:00.499Z,3.30
2017-11-10T23:07:29.689Z,4.27
2017-11-10T23:09:59.828Z,5.30
2017-11-10T23:12:28.089Z,5.23
2017-11-10T23:14:57.205Z,4.40
2017-11-10T23:17:25.483Z,5.10
2017-11-10T23:19:54.325Z,5.00
2017-11-10T23:22:24.784Z,5.17
2017-11-10T23:24:53.042Z,4.87
2017-11-10T23:27:21.324Z,4.63
2017-11-10T23:29:49.610Z,5.80
2017-11-10T23:32:17.853Z,4.97
2017-11-10T23:34:46.875Z,5.00
2017-11-10T23:37:16.205Z,4.33
2017-11-10T23:39:44.722Z,5.30
2017-11-10T23:42:13.300Z,5.57
2017-11-10T23:44:43.230Z,6.30
2017-11-10T23:47:11.579Z,5.33
2017-11-10T23:49:40.632Z,5.40
2017-11-10T23:52:10.329Z,4.13
2017-11-10T23:54:38.599Z,4.70
2017-11-10T23:57:08.331Z,4.27
2017-11-10T23:59:37.548Z,4.77
